30°C Temp
23°C Dewpoint
66% Humidity
Temperature
11 KM/H
7 MPH
6 KTS
260°
Due West

Wind Speed
Clear
Conditions
Pressure 1013.88 (hPa) - 29.94 (in)
Visibility 6.0 (mi) - 9.7 (km)

Current Conditions
LIRI
Location 25(km)
Metar :LIRI 171550Z 26006KT 220V300 CAVOK 30/23 Q1014
Wed 17th July 16:50 pm

Airport
  Metar Aviation API Data Provided by https://www.checkwx.com/ PHP scripts by weather34.com ©2024